sensor_id;sensor_type;location;lat;lon;timestamp;pressure;altitude;pressure_sealevel;temperature;humidity
19553;BME280;9420;50.876;7.012;2023-04-01T00:01:52;99007.94;;;25.87;40.22
19553;BME280;9420;50.876;7.012;2023-04-01T00:04:19;98983.97;;;26.80;38.86
19553;BME280;9420;50.876;7.012;2023-04-01T00:06:46;99010.41;;;26.84;39.13
19553;BME280;9420;50.876;7.012;2023-04-01T00:09:14;99009.28;;;25.91;39.92
19553;BME280;9420;50.876;7.012;2023-04-01T00:11:43;98989.31;;;26.29;39.29
19553;BME280;9420;50.876;7.012;2023-04-01T00:14:12;98999.28;;;26.58;38.61
19553;BME280;9420;50.876;7.012;2023-04-01T00:16:39;99011.50;;;26.90;38.55
19553;BME280;9420;50.876;7.012;2023-04-01T00:19:07;99006.50;;;25.99;39.79
19553;BME280;9420;50.876;7.012;2023-04-01T00:21:34;98992.63;;;27.74;37.83
19553;BME280;9420;50.876;7.012;2023-04-01T00:24:03;99002.88;;;26.80;38.79
19553;BME280;9420;50.876;7.012;2023-04-01T00:26:30;98997.13;;;26.83;38.85
19553;BME280;9420;50.876;7.012;2023-04-01T00:28:58;98985.59;;;26.59;39.15
19553;BME280;9420;50.876;7.012;2023-04-01T00:31:26;99005.34;;;26.16;40.05
19553;BME280;9420;50.876;7.012;2023-04-01T00:33:53;99000.00;;;26.81;38.63
19553;BME280;9420;50.876;7.012;2023-04-01T00:36:21;98997.06;;;26.18;39.05
19553;BME280;9420;50.876;7.012;2023-04-01T00:38:49;98986.22;;;26.61;39.10
19553;BME280;9420;50.876;7.012;2023-04-01T00:41:18;99001.59;;;26.75;38.64
19553;BME280;9420;50.876;7.012;2023-04-01T00:43:50;99001.88;;;26.81;38.51
19553;BME280;9420;50.876;7.012;2023-04-01T00:46:19;98991.88;;;26.66;38.82
19553;BME280;9420;50.876;7.012;2023-04-01T00:48:50;98994.91;;;26.13;40.04
19553;BME280;9420;50.876;7.012;2023-04-01T00:51:23;98998.56;;;26.20;39.71
19553;BME280;9420;50.876;7.012;2023-04-01T00:53:55;98988.16;;;26.67;39.01
19553;BME280;9420;50.876;7.012;2023-04-01T00:56:26;98988.97;;;26.97;38.07
19553;BME280;9420;50.876;7.012;2023-04-01T00:59:00;98979.91;;;27.05;38.65
19553;BME280;9420;50.876;7.012;2023-04-01T01:01:30;98980.81;;;26.61;38.74
19553;BME280;9420;50.876;7.012;2023-04-01T01:03:58;99001.63;;;26.17;39.60
19553;BME280;9420;50.876;7.012;2023-04-01T01:06:39;98980.88;;;26.18;39.64
19553;BME280;9420;50.876;7.012;2023-04-01T01:09:30;98973.00;;;27.23;38.17
19553;BME280;9420;50.876;7.012;2023-04-01T01:12:08;98967.81;;;26.36;39.19
19553;BME280;9420;50.876;7.012;2023-04-01T01:14:53;98997.88;;;26.77;38.32
19553;BME280;9420;50.876;7.012;2023-04-01T01:17:38;98978.97;;;26.77;38.45
19553;BME280;9420;50.876;7.012;2023-04-01T01:27:04;98981.84;;;26.02;39.88
19553;BME280;9420;50.876;7.012;2023-04-01T01:30:20;98984.81;;;25.78;40.42
19553;BME280;9420;50.876;7.012;2023-04-01T01:33:19;98980.28;;;27.02;38.34
19553;BME280;9420;50.876;7.012;2023-04-01T01:35:54;98968.25;;;26.68;38.68
19553;BME280;9420;50.876;7.012;2023-04-01T01:38:28;98975.13;;;25.69;39.89
19553;BME280;9420;50.876;7.012;2023-04-01T01:40:58;98962.16;;;26.45;39.32
19553;BME280;9420;50.876;7.012;2023-04-01T01:43:32;98972.16;;;27.65;37.41
19553;BME280;9420;50.876;7.012;2023-04-01T01:46:05;98964.88;;;26.66;39.23
19553;BME280;9420;50.876;7.012;2023-04-01T01:48:35;98977.22;;;26.25;39.75
19553;BME280;9420;50.876;7.012;2023-04-01T01:51:06;98968.50;;;26.23;40.04
19553;BME280;9420;50.876;7.012;2023-04-01T01:53:34;98966.25;;;26.56;39.87
19553;BME280;9420;50.876;7.012;2023-04-01T01:56:01;98966.41;;;26.54;39.54
19553;BME280;9420;50.876;7.012;2023-04-01T01:58:31;98985.19;;;26.04;39.96
19553;BME280;9420;50.876;7.012;2023-04-01T02:01:05;98972.63;;;25.82;40.75
19553;BME280;9420;50.876;7.012;2023-04-01T02:03:38;98973.88;;;26.23;40.83
19553;BME280;9420;50.876;7.012;2023-04-01T02:06:14;98969.84;;;25.90;41.70
19553;BME280;9420;50.876;7.012;2023-04-01T02:08:46;98979.94;;;26.25;41.34
19553;BME280;9420;50.876;7.012;2023-04-01T02:11:19;98976.63;;;26.73;40.85
19553;BME280;9420;50.876;7.012;2023-04-01T02:13:54;98989.00;;;25.80;41.99
19553;BME280;9420;50.876;7.012;2023-04-01T02:16:28;98981.91;;;25.79;42.87
19553;BME280;9420;50.876;7.012;2023-04-01T02:18:58;98978.97;;;25.52;43.24
19553;BME280;9420;50.876;7.012;2023-04-01T02:21:32;98994.88;;;24.93;43.99
19553;BME280;9420;50.876;7.012;2023-04-01T02:24:04;98984.75;;;25.49;43.76
19553;BME280;9420;50.876;7.012;2023-04-01T02:26:32;99000.47;;;25.37;43.43
19553;BME280;9420;50.876;7.012;2023-04-01T02:29:01;98985.22;;;26.33;42.98
19553;BME280;9420;50.876;7.012;2023-04-01T02:31:31;98996.34;;;25.49;43.40
19553;BME280;9420;50.876;7.012;2023-04-01T02:33:59;98989.16;;;26.16;43.83
19553;BME280;9420;50.876;7.012;2023-04-01T02:36:28;98988.09;;;26.75;42.82
19553;BME280;9420;50.876;7.012;2023-04-01T02:38:57;98979.91;;;26.40;43.65
19553;BME280;9420;50.876;7.012;2023-04-01T02:41:28;98987.91;;;26.04;44.25
19553;BME280;9420;50.876;7.012;2023-04-01T02:43:55;98991.25;;;25.54;44.97
19553;BME280;9420;50.876;7.012;2023-04-01T02:46:23;98975.91;;;25.92;44.42
19553;BME280;9420;50.876;7.012;2023-04-01T02:48:50;98969.25;;;26.17;44.03
19553;BME280;9420;50.876;7.012;2023-04-01T02:51:17;98988.94;;;26.03;43.60
19553;BME280;9420;50.876;7.012;2023-04-01T02:53:46;98964.56;;;26.40;44.24
19553;BME280;9420;50.876;7.012;2023-04-01T02:56:12;98967.47;;;26.10;44.87
19553;BME280;9420;50.876;7.012;2023-04-01T02:58:40;98968.13;;;26.12;44.49
19553;BME280;9420;50.876;7.012;2023-04-01T03:01:07;98968.16;;;25.89;44.96
19553;BME280;9420;50.876;7.012;2023-04-01T03:03:34;98971.19;;;25.57;45.37
19553;BME280;9420;50.876;7.012;2023-04-01T03:06:05;98957.13;;;25.84;45.05
19553;BME280;9420;50.876;7.012;2023-04-01T03:08:32;98968.59;;;25.49;45.38
19553;BME280;9420;50.876;7.012;2023-04-01T03:11:01;98965.66;;;24.90;46.81
19553;BME280;9420;50.876;7.012;2023-04-01T03:13:28;98969.38;;;25.27;46.13
19553;BME280;9420;50.876;7.012;2023-04-01T03:15:55;98968.69;;;26.22;44.95
19553;BME280;9420;50.876;7.012;2023-04-01T03:18:22;98966.88;;;25.99;45.29
19553;BME280;9420;50.876;7.012;2023-04-01T03:20:50;98969.81;;;25.61;45.48
19553;BME280;9420;50.876;7.012;2023-04-01T03:23:17;98968.94;;;25.46;46.03
19553;BME280;9420;50.876;7.012;2023-04-01T03:25:45;98957.53;;;25.58;45.89
19553;BME280;9420;50.876;7.012;2023-04-01T03:28:14;98968.31;;;25.36;46.07
19553;BME280;9420;50.876;7.012;2023-04-01T03:30:41;98974.63;;;26.17;45.05
19553;BME280;9420;50.876;7.012;2023-04-01T03:33:08;98962.81;;;25.52;46.38
19553;BME280;9420;50.876;7.012;2023-04-01T03:35:35;98968.66;;;25.33;46.00
19553;BME280;9420;50.876;7.012;2023-04-01T03:38:02;98973.09;;;26.00;45.18
19553;BME280;9420;50.876;7.012;2023-04-01T03:40:30;98971.66;;;26.12;45.35
19553;BME280;9420;50.876;7.012;2023-04-01T03:42:58;98979.56;;;26.28;44.47
19553;BME280;9420;50.876;7.012;2023-04-01T03:45:27;98984.59;;;25.65;45.58
19553;BME280;9420;50.876;7.012;2023-04-01T03:47:54;98972.47;;;25.98;45.14
19553;BME280;9420;50.876;7.012;2023-04-01T03:50:21;98975.38;;;26.40;44.29
19553;BME280;9420;50.876;7.012;2023-04-01T03:52:48;98978.13;;;25.74;44.95
19553;BME280;9420;50.876;7.012;2023-04-01T03:55:15;98976.84;;;25.99;44.55
19553;BME280;9420;50.876;7.012;2023-04-01T03:57:43;98973.09;;;26.58;43.47
19553;BME280;9420;50.876;7.012;2023-04-01T04:00:12;98974.94;;;25.85;43.88
19553;BME280;9420;50.876;7.012;2023-04-01T04:02:40;98978.41;;;26.81;42.41
19553;BME280;9420;50.876;7.012;2023-04-01T04:05:08;98969.59;;;26.43;42.81
19553;BME280;9420;50.876;7.012;2023-04-01T04:07:35;98978.25;;;25.12;44.27
19553;BME280;9420;50.876;7.012;2023-04-01T04:10:04;98971.34;;;26.51;43.15
19553;BME280;9420;50.876;7.012;2023-04-01T04:12:31;98968.22;;;27.95;39.60
19553;BME280;9420;50.876;7.012;2023-04-01T04:14:58;98975.84;;;28.47;38.89
19553;BME280;9420;50.876;7.012;2023-04-01T04:17:25;98980.44;;;28.94;38.34
19553;BME280;9420;50.876;7.012;2023-04-01T04:19:54;98978.47;;;27.72;39.92
19553;BME280;9420;50.876;7.012;2023-04-01T04:22:21;98977.28;;;28.84;38.94
19553;BME280;9420;50.876;7.012;2023-04-01T04:24:48;98982.00;;;28.69;38.78
19553;BME280;9420;50.876;7.012;2023-04-01T04:27:15;98983.81;;;27.23;40.90
19553;BME280;9420;50.876;7.012;2023-04-01T04:29:42;98981.25;;;27.58;40.13
19553;BME280;9420;50.876;7.012;2023-04-01T04:32:09;98994.56;;;28.08;39.70
19553;BME280;9420;50.876;7.012;2023-04-01T04:34:37;98974.22;;;29.13;38.45
19553;BME280;9420;50.876;7.012;2023-04-01T04:37:05;98978.66;;;27.43;40.66
19553;BME280;9420;50.876;7.012;2023-04-01T04:39:32;98981.25;;;28.88;38.88
19553;BME280;9420;50.876;7.012;2023-04-01T04:41:59;99002.25;;;27.34;40.26
19553;BME280;9420;50.876;7.012;2023-04-01T04:44:26;98987.72;;;27.84;39.81
19553;BME280;9420;50.876;7.012;2023-04-01T04:46:53;98984.06;;;27.43;40.42
19553;BME280;9420;50.876;7.012;2023-04-01T04:49:20;98991.66;;;26.32;41.53
19553;BME280;9420;50.876;7.012;2023-04-01T04:51:47;98985.44;;;27.60;41.01
19553;BME280;9420;50.876;7.012;2023-04-01T04:54:16;98994.97;;;27.77;41.27
19553;BME280;9420;50.876;7.012;2023-04-01T04:56:43;98991.63;;;28.71;40.41
19553;BME280;9420;50.876;7.012;2023-04-01T04:59:10;98988.34;;;27.86;40.74
19553;BME280;9420;50.876;7.012;2023-04-01T05:01:38;98994.47;;;28.57;40.20
19553;BME280;9420;50.876;7.012;2023-04-01T05:04:05;98997.00;;;28.65;39.92
19553;BME280;9420;50.876;7.012;2023-04-01T05:06:32;98997.53;;;28.19;40.86
19553;BME280;9420;50.876;7.012;2023-04-01T05:08:59;99006.19;;;28.02;40.92
19553;BME280;9420;50.876;7.012;2023-04-01T05:11:28;99003.94;;;28.40;40.17
19553;BME280;9420;50.876;7.012;2023-04-01T05:13:55;99006.47;;;28.95;39.91
19553;BME280;9420;50.876;7.012;2023-04-01T05:16:22;99004.50;;;28.63;40.44
19553;BME280;9420;50.876;7.012;2023-04-01T05:18:49;98998.50;;;30.00;38.25
19553;BME280;9420;50.876;7.012;2023-04-01T05:21:16;99007.72;;;28.86;39.48
19553;BME280;9420;50.876;7.012;2023-04-01T05:23:43;99010.72;;;28.57;39.96
19553;BME280;9420;50.876;7.012;2023-04-01T05:26:13;99010.16;;;29.28;38.53
19553;BME280;9420;50.876;7.012;2023-04-01T05:28:42;99006.81;;;29.39;38.81
19553;BME280;9420;50.876;7.012;2023-04-01T05:31:10;99013.50;;;29.43;38.02
19553;BME280;9420;50.876;7.012;2023-04-01T05:33:37;99007.25;;;29.36;38.28
19553;BME280;9420;50.876;7.012;2023-04-01T05:36:09;99030.31;;;28.59;39.45
19553;BME280;9420;50.876;7.012;2023-04-01T05:38:37;99019.25;;;29.14;38.43
19553;BME280;9420;50.876;7.012;2023-04-01T05:41:05;99020.44;;;29.85;38.19
19553;BME280;9420;50.876;7.012;2023-04-01T05:43:32;99031.06;;;28.53;39.63
19553;BME280;9420;50.876;7.012;2023-04-01T05:46:03;99031.72;;;28.20;40.43
19553;BME280;9420;50.876;7.012;2023-04-01T05:48:32;99030.28;;;28.24;40.28
19553;BME280;9420;50.876;7.012;2023-04-01T05:51:00;99024.22;;;28.22;40.10
19553;BME280;9420;50.876;7.012;2023-04-01T05:53:27;99035.13;;;27.80;40.61
19553;BME280;9420;50.876;7.012;2023-04-01T05:55:54;99036.81;;;27.81;41.17
19553;BME280;9420;50.876;7.012;2023-04-01T05:58:21;99040.13;;;28.04;39.92
19553;BME280;9420;50.876;7.012;2023-04-01T06:00:48;99033.06;;;28.38;40.15
19553;BME280;9420;50.876;7.012;2023-04-01T06:03:16;99044.47;;;28.61;39.97
19553;BME280;9420;50.876;7.012;2023-04-01T06:05:44;99050.06;;;27.76;41.43
19553;BME280;9420;50.876;7.012;2023-04-01T06:08:14;99046.56;;;27.82;40.91
19553;BME280;9420;50.876;7.012;2023-04-01T06:10:55;99043.47;;;28.41;40.93
19553;BME280;9420;50.876;7.012;2023-04-01T06:13:42;99049.03;;;27.77;41.39
19553;BME280;9420;50.876;7.012;2023-04-01T06:16:23;99048.16;;;27.49;41.79
19553;BME280;9420;50.876;7.012;2023-04-01T06:19:16;99054.03;;;27.80;41.50
19553;BME280;9420;50.876;7.012;2023-04-01T06:22:31;99052.41;;;28.07;41.67
19553;BME280;9420;50.876;7.012;2023-04-01T06:25:38;99053.41;;;27.57;42.29
19553;BME280;9420;50.876;7.012;2023-04-01T06:28:44;99064.59;;;27.33;42.90
19553;BME280;9420;50.876;7.012;2023-04-01T06:31:33;99070.16;;;28.44;40.97
19553;BME280;9420;50.876;7.012;2023-04-01T06:34:27;99062.00;;;28.09;41.70
19553;BME280;9420;50.876;7.012;2023-04-01T06:37:23;99065.91;;;27.37;42.41
19553;BME280;9420;50.876;7.012;2023-04-01T06:43:04;99070.28;;;27.80;42.57
19553;BME280;9420;50.876;7.012;2023-04-01T06:45:45;99068.41;;;27.60;42.88
19553;BME280;9420;50.876;7.012;2023-04-01T06:48:34;99066.94;;;27.78;42.52
19553;BME280;9420;50.876;7.012;2023-04-01T06:51:21;99075.53;;;28.65;40.95
19553;BME280;9420;50.876;7.012;2023-04-01T06:53:55;99081.31;;;28.27;41.91
19553;BME280;9420;50.876;7.012;2023-04-01T06:56:29;99071.59;;;26.77;43.89
19553;BME280;9420;50.876;7.012;2023-04-01T06:59:01;99081.09;;;26.07;45.88
19553;BME280;9420;50.876;7.012;2023-04-01T07:01:37;99093.41;;;27.83;42.46
19553;BME280;9420;50.876;7.012;2023-04-01T07:04:14;99085.41;;;28.51;41.62
19553;BME280;9420;50.876;7.012;2023-04-01T07:06:48;99080.22;;;27.52;42.70
19553;BME280;9420;50.876;7.012;2023-04-01T07:09:21;99076.00;;;28.47;41.15
19553;BME280;9420;50.876;7.012;2023-04-01T07:11:53;99075.97;;;28.41;40.88
19553;BME280;9420;50.876;7.012;2023-04-01T07:14:30;99088.34;;;28.84;40.80
19553;BME280;9420;50.876;7.012;2023-04-01T07:17:05;99082.28;;;27.71;42.14
19553;BME280;9420;50.876;7.012;2023-04-01T07:19:42;99086.78;;;28.41;40.87
19553;BME280;9420;50.876;7.012;2023-04-01T07:22:26;99082.56;;;28.59;41.19
19553;BME280;9420;50.876;7.012;2023-04-01T07:24:56;99090.47;;;27.84;41.45
19553;BME280;9420;50.876;7.012;2023-04-01T07:27:24;99095.38;;;27.74;42.33
19553;BME280;9420;50.876;7.012;2023-04-01T07:29:51;99098.38;;;27.58;42.80
19553;BME280;9420;50.876;7.012;2023-04-01T07:32:32;99099.78;;;27.75;42.78
19553;BME280;9420;50.876;7.012;2023-04-01T07:35:30;99102.63;;;27.17;43.14
19553;BME280;9420;50.876;7.012;2023-04-01T07:38:17;99109.56;;;26.46;44.46
19553;BME280;9420;50.876;7.012;2023-04-01T07:40:57;99109.34;;;28.48;41.79
19553;BME280;9420;50.876;7.012;2023-04-01T07:43:50;99098.94;;;28.17;42.41
19553;BME280;9420;50.876;7.012;2023-04-01T07:46:39;99109.78;;;28.79;41.67
19553;BME280;9420;50.876;7.012;2023-04-01T07:49:16;99126.81;;;27.54;42.53
19553;BME280;9420;50.876;7.012;2023-04-01T07:51:59;99113.16;;;27.83;42.92
19553;BME280;9420;50.876;7.012;2023-04-01T07:54:38;99121.88;;;26.93;44.88
19553;BME280;9420;50.876;7.012;2023-04-01T07:57:16;99122.09;;;27.41;44.01
19553;BME280;9420;50.876;7.012;2023-04-01T07:59:58;99133.47;;;28.43;42.40
19553;BME280;9420;50.876;7.012;2023-04-01T08:02:51;99121.34;;;27.33;43.44
19553;BME280;9420;50.876;7.012;2023-04-01T08:05:27;99141.38;;;27.24;44.43
19553;BME280;9420;50.876;7.012;2023-04-01T08:08:08;99133.31;;;28.23;42.66
19553;BME280;9420;50.876;7.012;2023-04-01T08:10:48;99130.81;;;28.77;42.79
19553;BME280;9420;50.876;7.012;2023-04-01T08:13:30;99141.69;;;28.83;42.23
19553;BME280;9420;50.876;7.012;2023-04-01T08:16:10;99141.56;;;28.98;42.28
19553;BME280;9420;50.876;7.012;2023-04-01T08:18:46;99162.38;;;27.36;43.98
19553;BME280;9420;50.876;7.012;2023-04-01T08:21:24;99146.28;;;27.85;43.97
19553;BME280;9420;50.876;7.012;2023-04-01T08:23:56;99160.97;;;27.97;42.79
19553;BME280;9420;50.876;7.012;2023-04-01T08:26:35;99156.28;;;28.89;42.50
19553;BME280;9420;50.876;7.012;2023-04-01T08:29:12;99164.03;;;29.26;41.86
19553;BME280;9420;50.876;7.012;2023-04-01T08:31:48;99173.03;;;28.44;43.16
19553;BME280;9420;50.876;7.012;2023-04-01T08:34:23;99170.06;;;28.39;42.78
19553;BME280;9420;50.876;7.012;2023-04-01T08:36:57;99178.59;;;28.36;43.56
19553;BME280;9420;50.876;7.012;2023-04-01T08:39:33;99185.06;;;29.24;42.08
19553;BME280;9420;50.876;7.012;2023-04-01T08:42:38;99185.75;;;27.15;45.58
19553;BME280;9420;50.876;7.012;2023-04-01T08:46:02;99174.13;;;28.21;44.35
19553;BME280;9420;50.876;7.012;2023-04-01T08:49:03;99186.69;;;26.93;44.91
19553;BME280;9420;50.876;7.012;2023-04-01T08:51:58;99190.41;;;28.56;43.21
19553;BME280;9420;50.876;7.012;2023-04-01T08:55:02;99185.59;;;28.02;43.98
19553;BME280;9420;50.876;7.012;2023-04-01T08:57:45;99190.91;;;28.38;44.00
19553;BME280;9420;50.876;7.012;2023-04-01T09:00:29;99185.16;;;28.48;44.17
19553;BME280;9420;50.876;7.012;2023-04-01T09:03:31;99197.69;;;27.35;44.96
19553;BME280;9420;50.876;7.012;2023-04-01T09:06:25;99199.94;;;28.24;43.97
19553;BME280;9420;50.876;7.012;2023-04-01T09:09:27;99219.03;;;26.63;47.80
19553;BME280;9420;50.876;7.012;2023-04-01T09:12:28;99206.91;;;27.76;45.29
19553;BME280;9420;50.876;7.012;2023-04-01T09:15:31;99206.34;;;28.16;44.54
19553;BME280;9420;50.876;7.012;2023-04-01T09:18:27;99210.53;;;27.33;44.94
19553;BME280;9420;50.876;7.012;2023-04-01T09:21:30;99211.84;;;27.87;44.91
19553;BME280;9420;50.876;7.012;2023-04-01T09:27:45;99223.41;;;27.31;46.31
19553;BME280;9420;50.876;7.012;2023-04-01T09:31:00;99221.72;;;28.86;43.55
19553;BME280;9420;50.876;7.012;2023-04-01T09:34:23;99233.25;;;28.67;44.41
19553;BME280;9420;50.876;7.012;2023-04-01T09:37:38;99254.06;;;26.71;47.14
19553;BME280;9420;50.876;7.012;2023-04-01T09:40:18;99241.00;;;28.49;44.92
19553;BME280;9420;50.876;7.012;2023-04-01T09:43:27;99241.00;;;28.06;44.53
19553;BME280;9420;50.876;7.012;2023-04-01T09:46:16;99250.41;;;28.32;44.63
19553;BME280;9420;50.876;7.012;2023-04-01T09:52:18;99249.56;;;29.01;43.32
19553;BME280;9420;50.876;7.012;2023-04-01T09:55:27;99253.28;;;27.73;44.24
19553;BME280;9420;50.876;7.012;2023-04-01T10:08:45;99268.94;;;28.13;43.28
19553;BME280;9420;50.876;7.012;2023-04-01T10:12:04;99276.78;;;27.29;44.56
19553;BME280;9420;50.876;7.012;2023-04-01T10:15:06;99270.69;;;27.85;43.93
19553;BME280;9420;50.876;7.012;2023-04-01T10:18:12;99275.91;;;28.86;42.70
19553;BME280;9420;50.876;7.012;2023-04-01T10:25:04;99295.72;;;27.73;43.71
19553;BME280;9420;50.876;7.012;2023-04-01T10:38:33;99307.47;;;27.65;43.79
19553;BME280;9420;50.876;7.012;2023-04-01T10:41:49;99303.94;;;27.50;44.19
19553;BME280;9420;50.876;7.012;2023-04-01T10:48:23;99303.06;;;27.06;44.81
19553;BME280;9420;50.876;7.012;2023-04-01T10:51:40;99295.53;;;27.45;44.35
19553;BME280;9420;50.876;7.012;2023-04-01T10:54:56;99300.44;;;29.05;41.59
19553;BME280;9420;50.876;7.012;2023-04-01T11:01:25;99305.84;;;28.36;41.63
19553;BME280;9420;50.876;7.012;2023-04-01T11:07:22;99308.50;;;28.50;42.21
19553;BME280;9420;50.876;7.012;2023-04-01T11:20:31;99306.84;;;29.53;41.34
19553;BME280;9420;50.876;7.012;2023-04-01T11:23:37;99323.69;;;27.65;43.89
19553;BME280;9420;50.876;7.012;2023-04-01T11:26:25;99322.75;;;29.07;41.87
19553;BME280;9420;50.876;7.012;2023-04-01T11:29:33;99335.06;;;26.94;45.46
19553;BME280;9420;50.876;7.012;2023-04-01T11:32:20;99338.44;;;26.51;46.78
19553;BME280;9420;50.876;7.012;2023-04-01T11:37:54;99334.66;;;27.93;43.62
19553;BME280;9420;50.876;7.012;2023-04-01T11:40:37;99335.16;;;28.95;42.93
19553;BME280;9420;50.876;7.012;2023-04-01T11:43:18;99333.84;;;29.34;43.14
19553;BME280;9420;50.876;7.012;2023-04-01T11:45:57;99340.66;;;29.02;43.08
19553;BME280;9420;50.876;7.012;2023-04-01T11:48:46;99335.25;;;28.60;43.38
19553;BME280;9420;50.876;7.012;2023-04-01T11:51:52;99337.94;;;29.23;42.22
19553;BME280;9420;50.876;7.012;2023-04-01T12:05:43;99360.56;;;28.52;44.17
19553;BME280;9420;50.876;7.012;2023-04-01T12:08:29;99358.03;;;29.35;42.03
19553;BME280;9420;50.876;7.012;2023-04-01T12:11:10;99370.63;;;29.49;42.85
19553;BME280;9420;50.876;7.012;2023-04-01T12:13:50;99379.00;;;27.77;44.73
19553;BME280;9420;50.876;7.012;2023-04-01T12:16:43;99374.69;;;27.83;44.80
19553;BME280;9420;50.876;7.012;2023-04-01T12:19:23;99371.25;;;29.45;42.90
19553;BME280;9420;50.876;7.012;2023-04-01T12:22:23;99380.84;;;28.20;45.08
19553;BME280;9420;50.876;7.012;2023-04-01T12:25:06;99381.16;;;28.68;43.64
19553;BME280;9420;50.876;7.012;2023-04-01T12:28:01;99386.56;;;28.32;43.85
19553;BME280;9420;50.876;7.012;2023-04-01T12:30:45;99395.38;;;29.67;43.13
19553;BME280;9420;50.876;7.012;2023-04-01T12:33:38;99391.09;;;29.52;42.73
19553;BME280;9420;50.876;7.012;2023-04-01T12:36:37;99407.50;;;27.94;44.56
19553;BME280;9420;50.876;7.012;2023-04-01T12:39:41;99401.19;;;28.67;43.74
19553;BME280;9420;50.876;7.012;2023-04-01T12:42:32;99390.50;;;29.56;42.20
19553;BME280;9420;50.876;7.012;2023-04-01T12:45:29;99397.56;;;29.23;44.25
19553;BME280;9420;50.876;7.012;2023-04-01T12:48:17;99409.84;;;27.68;45.00
19553;BME280;9420;50.876;7.012;2023-04-01T12:51:32;99398.66;;;28.29;44.59
19553;BME280;9420;50.876;7.012;2023-04-01T12:54:48;99407.03;;;28.35;44.00
19553;BME280;9420;50.876;7.012;2023-04-01T12:57:44;99401.81;;;28.90;43.51
19553;BME280;9420;50.876;7.012;2023-04-01T13:00:45;99419.72;;;27.24;45.65
19553;BME280;9420;50.876;7.012;2023-04-01T13:03:39;99413.31;;;29.13;43.08
19553;BME280;9420;50.876;7.012;2023-04-01T13:06:29;99418.34;;;29.16;42.01
19553;BME280;9420;50.876;7.012;2023-04-01T13:09:13;99420.53;;;30.64;40.54
19553;BME280;9420;50.876;7.012;2023-04-01T13:12:07;99425.94;;;28.49;43.60
19553;BME280;9420;50.876;7.012;2023-04-01T13:15:14;99430.47;;;29.20;41.69
19553;BME280;9420;50.876;7.012;2023-04-01T13:17:53;99420.59;;;29.89;40.87
19553;BME280;9420;50.876;7.012;2023-04-01T13:20:40;99437.84;;;29.05;42.20
19553;BME280;9420;50.876;7.012;2023-04-01T13:23:25;99438.69;;;28.70;41.75
19553;BME280;9420;50.876;7.012;2023-04-01T13:26:13;99427.75;;;28.57;43.66
19553;BME280;9420;50.876;7.012;2023-04-01T13:28:55;99436.53;;;28.29;43.53
19553;BME280;9420;50.876;7.012;2023-04-01T13:31:38;99439.56;;;28.56;43.21
19553;BME280;9420;50.876;7.012;2023-04-01T13:34:36;99446.03;;;27.67;44.43
19553;BME280;9420;50.876;7.012;2023-04-01T13:37:26;99442.97;;;30.32;41.32
19553;BME280;9420;50.876;7.012;2023-04-01T13:40:26;99443.94;;;29.83;41.34
19553;BME280;9420;50.876;7.012;2023-04-01T13:43:10;99451.56;;;28.03;43.75
19553;BME280;9420;50.876;7.012;2023-04-01T13:46:05;99446.97;;;29.04;42.65
19553;BME280;9420;50.876;7.012;2023-04-01T13:48:54;99457.72;;;29.33;41.51
19553;BME280;9420;50.876;7.012;2023-04-01T13:51:52;99452.28;;;29.33;41.70
19553;BME280;9420;50.876;7.012;2023-04-01T13:54:54;99458.22;;;29.01;41.54
19553;BME280;9420;50.876;7.012;2023-04-01T13:57:44;99452.22;;;29.75;41.05
19553;BME280;9420;50.876;7.012;2023-04-01T14:00:35;99456.69;;;30.24;40.16
19553;BME280;9420;50.876;7.012;2023-04-01T14:03:30;99474.25;;;29.17;40.95
19553;BME280;9420;50.876;7.012;2023-04-01T14:06:16;99461.56;;;30.01;40.38
19553;BME280;9420;50.876;7.012;2023-04-01T14:09:30;99476.16;;;28.66;41.49
19553;BME280;9420;50.876;7.012;2023-04-01T14:12:11;99477.88;;;28.53;41.62
19553;BME280;9420;50.876;7.012;2023-04-01T14:15:04;99477.41;;;28.20;42.96
19553;BME280;9420;50.876;7.012;2023-04-01T14:17:50;99479.00;;;28.58;42.27
19553;BME280;9420;50.876;7.012;2023-04-01T14:20:32;99484.16;;;29.10;41.86
19553;BME280;9420;50.876;7.012;2023-04-01T14:23:28;99484.72;;;29.97;40.43
19553;BME280;9420;50.876;7.012;2023-04-01T14:26:50;99481.06;;;29.76;40.90
19553;BME280;9420;50.876;7.012;2023-04-01T14:29:32;99491.22;;;29.26;42.03
19553;BME280;9420;50.876;7.012;2023-04-01T14:32:13;99501.22;;;28.39;44.81
19553;BME280;9420;50.876;7.012;2023-04-01T14:35:09;99499.41;;;30.36;42.67
19553;BME280;9420;50.876;7.012;2023-04-01T14:38:04;99499.81;;;29.29;43.59
19553;BME280;9420;50.876;7.012;2023-04-01T14:41:02;99500.13;;;29.90;42.60
19553;BME280;9420;50.876;7.012;2023-04-01T14:47:11;99507.03;;;27.84;44.71
19553;BME280;9420;50.876;7.012;2023-04-01T14:49:46;99497.84;;;30.27;41.89
19553;BME280;9420;50.876;7.012;2023-04-01T14:52:24;99509.53;;;28.67;42.74
19553;BME280;9420;50.876;7.012;2023-04-01T14:54:57;99506.13;;;29.15;43.23
19553;BME280;9420;50.876;7.012;2023-04-01T14:57:27;99509.97;;;28.56;42.49
19553;BME280;9420;50.876;7.012;2023-04-01T15:00:09;99510.97;;;30.17;40.87
19553;BME280;9420;50.876;7.012;2023-04-01T15:02:57;99513.72;;;29.47;42.14
19553;BME280;9420;50.876;7.012;2023-04-01T15:05:39;99519.13;;;29.05;42.85
19553;BME280;9420;50.876;7.012;2023-04-01T15:08:23;99518.44;;;29.60;41.30
19553;BME280;9420;50.876;7.012;2023-04-01T15:11:26;99524.94;;;29.02;43.44
19553;BME280;9420;50.876;7.012;2023-04-01T15:14:20;99525.03;;;30.00;41.88
19553;BME280;9420;50.876;7.012;2023-04-01T15:17:02;99531.50;;;31.27;40.11
19553;BME280;9420;50.876;7.012;2023-04-01T15:19:48;99533.34;;;29.07;44.43
19553;BME280;9420;50.876;7.012;2023-04-01T15:22:47;99542.28;;;28.28;44.72
19553;BME280;9420;50.876;7.012;2023-04-01T15:25:44;99535.56;;;29.60;42.47
19553;BME280;9420;50.876;7.012;2023-04-01T15:28:28;99537.38;;;29.74;42.49
19553;BME280;9420;50.876;7.012;2023-04-01T15:31:07;99540.47;;;31.02;40.77
19553;BME280;9420;50.876;7.012;2023-04-01T15:33:53;99555.66;;;28.29;43.56
19553;BME280;9420;50.876;7.012;2023-04-01T15:36:38;99558.50;;;28.13;44.35
19553;BME280;9420;50.876;7.012;2023-04-01T15:39:17;99566.00;;;28.55;44.19
19553;BME280;9420;50.876;7.012;2023-04-01T15:42:06;99567.59;;;26.85;47.15